Time;durP1;ratioP1;P1;durP2;ratioP2;P2;SDS_P1;SDS_P2;PMS_P1;PMS_P2;Temp;Humidity;BMP_temperature;BMP_pressure;BME280_temperature;BME280_humidity;BME280_pressure;Samples;Min_cycle;Max_cycle;Signal;HPM_P1;HPM_P2
2022/01/18 00:05:55;;;;;;;;;21.00;8.50;;;;;;;;3;124387893;139560533;-85
2022/01/18 00:19:24;;;;;;;;;;;;;;;;;;3;117048657;130554693;-85
2022/01/18 00:26:03;;;;;;;;;23.00;19.50;;;;;;;;3;113260220;125581556;-85
2022/01/18 00:39:53;;;;;;;;;10.00;10.00;;;;;;;;3;130554410;133706541;-84
2022/01/18 00:46:18;;;;;;;;;;;;;;;;;;3;116949388;130372643;-84
2022/01/18 00:52:32;;;;;;;;;17.50;17.50;;;;;;;;3;113757029;125535797;-84
2022/01/18 00:58:54;;;;;;;;;19.50;7.50;;;;;;;;3;124271808;139558342;-85
2022/01/18 01:05:42;;;;;;;;;;;;;;;;;;;;;
2022/01/18 01:12:09;;;;;;;;;;;;;;;;;;3;117078886;130555678;-85
2022/01/18 01:18:40;;;;;;;;;24.00;24.00;;;;;;;;3;112691859;122732232;-85
2022/01/18 01:44:58;;;;;;;;;55.50;36.00;;;;;;;;3;111515812;125325275;-85
2022/01/18 01:51:31;;;;;;;;;31.00;19.00;;;;;;;;3;124244485;139558713;-85
2022/01/18 01:58:16;;;;;;;;;31.00;19.00;;;;;;;;3;130554880;135480626;-85
2022/01/18 02:04:48;;;;;;;;;;;;;;;;;;3;117048689;130554091;-85
2022/01/18 02:11:06;;;;;;;;;;;;;;;;;;;;;
2022/01/18 02:24:23;;;;;;;;;12.00;8.00;;;;;;;;3;130552696;132554180;-86
2022/01/18 02:30:47;;;;;;;;;;;;;;;;;;3;117050921;130554390;-85
2022/01/18 02:36:57;;;;;;;;;3.50;3.50;;;;;;;;3;111084039;124875275;-85
2022/01/18 02:50:15;;;;;;;;;6.50;6.50;;;;;;;;3;130555769;132554635;-85
2022/01/18 02:57:00;;;;;;;;;;;;;;;;;;3;116902397;130554270;-85
2022/01/18 03:03:13;;;;;;;;;5.50;5.50;;;;;;;;3;113293889;124793101;-85
2022/01/18 03:09:37;;;;;;;;;;;;;;;;;;;;;
2022/01/18 03:16:20;;;;;;;;;11.50;5.00;;;;;;;;3;130581847;132647924;-85
2022/01/18 03:22:50;;;;;;;;;35.00;30.00;;;;;;;;3;117048576;130554950;-85
2022/01/18 03:28:49;;;;;;;;;5.50;5.50;;;;;;;;3;110646770;122753706;-85
2022/01/18 03:35:11;;;;;;;;;30.50;15.50;;;;;;;;3;123038432;132724670;-85
2022/01/18 03:42:35;;;;;;;;;17.50;6.50;;;;;;;;3;130554011;131524792;-85
2022/01/18 03:48:50;;;;;;;;;;;;;;;;;;3;117048636;130555321;-85
2022/01/18 03:55:23;;;;;;;;;39.00;19.00;;;;;;;;3;106824407;125882497;-86
2022/01/18 04:02:04;;;;;;;;;6.50;6.50;;;;;;;;3;123928072;139557146;-85
2022/01/18 04:08:45;;;;;;;;;3.00;3.00;;;;;;;;3;129729711;130556139;-85
2022/01/18 04:15:04;;;;;;;;;;;;;;;;;;3;117050214;130553646;-85
2022/01/18 04:27:32;;;;;;;;;23.00;11.00;;;;;;;;3;120520796;129812046;-85
2022/01/18 04:34:10;;;;;;;;;10.50;6.00;;;;;;;;3;129786945;130555150;-85
2022/01/18 04:40:33;;;;;;;;;;;;;;;;;;3;117049810;130511755;-85
2022/01/18 04:52:43;;;;;;;;;11.00;8.00;;;;;;;;3;120808731;126772971;-85
2022/01/18 04:59:16;;;;;;;;;1.50;1.50;;;;;;;;3;128439229;130553251;-85
2022/01/18 05:05:37;;;;;;;;;;;;;;;;;;3;117049145;130553414;-85
2022/01/18 05:11:09;;;;;;;;;6.50;6.50;;;;;;;;3;102776607;114457536;-85
2022/01/18 05:15:39;;;;;;;;;37.00;13.00;;;;;;;;3;110137909;118304975;-85
2022/01/18 05:23:33;;;;;;;;;36.25;25.00;;;;;;;;4772011;30;8876;-85
2022/01/18 05:26:00;;;;;;;;;38.75;23.50;;;;;;;;4739630;30;9015;-85
2022/01/18 05:28:26;;;;;;;;;30.00;22.75;;;;;;;;4755526;30;8865;-85
2022/01/18 05:30:51;;;;;;;;;32.25;23.75;;;;;;;;4739426;30;8886;-85
2022/01/18 05:33:31;;;;;;;;;32.25;22.25;;;;;;;;4754875;30;8882;-85
2022/01/18 05:36:07;;;;;;;;;34.50;25.50;;;;;;;;4739395;30;9007;-85
2022/01/18 05:38:35;;;;;;;;;33.00;23.00;;;;;;;;4750288;30;8949;-85
2022/01/18 05:41:18;;;;;;;;;31.50;20.50;;;;;;;;4738069;30;8854;-85
2022/01/18 05:43:48;;;;;;;;;31.75;20.50;;;;;;;;4755402;30;8972;-85
2022/01/18 05:46:14;;;;;;;;;26.25;18.50;;;;;;;;4755580;30;8826;-85
2022/01/18 05:48:39;;;;;;;;;36.00;23.00;;;;;;;;4755199;30;8910;-85
2022/01/18 05:51:07;;;;;;;;;36.25;22.75;;;;;;;;4754797;30;8862;-84
2022/01/18 05:53:35;;;;;;;;;31.50;20.50;;;;;;;;4739199;30;8853;-85
2022/01/18 05:56:13;;;;;;;;;34.50;24.00;;;;;;;;4757048;30;8838;-85
2022/01/18 05:58:41;;;;;;;;;25.00;19.50;;;;;;;;4755308;30;8850;-85
2022/01/18 06:01:07;;;;;;;;;24.75;19.00;;;;;;;;4736568;30;8838;-85
2022/01/18 06:03:49;;;;;;;;;28.67;18.67;;;;;;;;4761421;30;8867;-85
2022/01/18 06:09:15;;;;;;;;;;;;;;;;;;;;;
2022/01/18 06:12:11;;;;;;;;;26.00;15.00;;;;;;;;4753544;30;36772;-85
2022/01/18 06:14:36;;;;;;;;;26.00;19.50;;;;;;;;4753724;30;8838;-85
2022/01/18 06:17:01;;;;;;;;;19.75;18.00;;;;;;;;4769130;30;8947;-85
2022/01/18 06:19:27;;;;;;;;;21.75;14.75;;;;;;;;4772279;30;8868;-85
2022/01/18 06:21:52;;;;;;;;;20.75;16.00;;;;;;;;4747123;30;8878;-85
2022/01/18 06:24:17;;;;;;;;;27.33;17.67;;;;;;;;4762871;29;8858;-85
2022/01/18 06:26:42;;;;;;;;;25.67;17.33;;;;;;;;4752817;30;10589;-85
2022/01/18 06:29:08;;;;;;;;;28.67;18.00;;;;;;;;4752769;30;9522;-85
2022/01/18 06:31:33;;;;;;;;;22.75;15.75;;;;;;;;4752498;30;11767;-85
2022/01/18 06:34:01;;;;;;;;;28.00;17.00;;;;;;;;4752110;30;8857;-86
2022/01/18 06:36:26;;;;;;;;;28.25;19.50;;;;;;;;4750539;30;8798;-87
2022/01/18 06:38:51;;;;;;;;;23.25;15.00;;;;;;;;4736904;30;8854;-85
2022/01/18 06:41:35;;;;;;;;;21.50;16.00;;;;;;;;4755070;30;8846;-88
2022/01/18 06:44:00;;;;;;;;;23.75;18.00;;;;;;;;4754414;30;8819;-82
2022/01/18 06:46:30;;;;;;;;;25.00;18.75;;;;;;;;4735147;30;8854;-85
2022/01/18 06:49:00;;;;;;;;;31.75;17.25;;;;;;;;4753774;30;8853;-85
2022/01/18 06:51:28;;;;;;;;;26.25;18.00;;;;;;;;4737077;30;8830;-84
2022/01/18 06:54:02;;;;;;;;;22.25;18.00;;;;;;;;4751250;30;8838;-85
2022/01/18 06:56:27;;;;;;;;;20.50;16.75;;;;;;;;4762762;30;8845;-85
2022/01/18 06:58:53;;;;;;;;;26.00;21.00;;;;;;;;4755528;30;8862;-87
2022/01/18 07:01:19;;;;;;;;;25.75;18.00;;;;;;;;4737109;30;11244;-87
2022/01/18 07:03:52;;;;;;;;;26.50;19.00;;;;;;;;4736576;30;8870;-87
2022/01/18 07:06:17;;;;;;;;;31.75;19.25;;;;;;;;4752608;30;8810;-86
2022/01/18 07:08:58;;;;;;;;;;;;;;;;;;;;;
2022/01/18 07:11:32;;;;;;;;;25.50;19.00;;;;;;;;4751952;30;35677;-85
2022/01/18 07:13:58;;;;;;;;;26.25;19.50;;;;;;;;4752588;30;8830;-82
2022/01/18 07:16:25;;;;;;;;;25.50;15.25;;;;;;;;4736931;30;8940;-84
2022/01/18 07:18:50;;;;;;;;;35.00;19.00;;;;;;;;4753321;30;8815;-84
2022/01/18 07:21:16;;;;;;;;;20.00;15.33;;;;;;;;4737560;30;8881;-83
2022/01/18 07:23:44;;;;;;;;;24.50;19.50;;;;;;;;4733138;30;11805;-83
2022/01/18 07:26:10;;;;;;;;;26.00;23.00;;;;;;;;4741389;30;8846;-84
2022/01/18 07:28:38;;;;;;;;;40.25;21.50;;;;;;;;4748547;30;8873;-84
2022/01/18 07:31:06;;;;;;;;;25.75;19.75;;;;;;;;4756841;30;8842;-83
2022/01/18 07:33:31;;;;;;;;;23.25;16.75;;;;;;;;4756232;30;8787;-84
2022/01/18 07:35:56;;;;;;;;;28.00;20.67;;;;;;;;4756713;30;8847;-81
2022/01/18 07:38:24;;;;;;;;;23.67;21.33;;;;;;;;4757116;30;11364;-81
2022/01/18 07:47:37;;;;;;;;;27.75;20.00;;;;;;;;4748148;29;8938;-84
2022/01/18 07:50:40;;;;;;;;;33.00;20.25;;;;;;;;4757034;30;8868;-84
2022/01/18 07:56:44;;;;;;;;;;;;;;;;;;;;;
2022/01/18 07:59:09;;;;;;;;;30.50;23.25;;;;;;;;4753145;30;8886;-84
2022/01/18 08:02:18;;;;;;;;;25.25;19.75;;;;;;;;4766621;30;8822;-84
2022/01/18 08:05:10;;;;;;;;;;;;;;;;;;;;;
2022/01/18 08:14:17;;;;;;;;;;;;;;;;;;;;;
2022/01/18 08:17:09;;;;;;;;;23.25;19.50;;;;;;;;4755663;30;35651;-84
2022/01/18 08:20:13;;;;;;;;;;;;;;;;;;;;;
2022/01/18 08:25:57;;;;;;;;;25.50;20.75;;;;;;;;4725598;30;8798;-84
2022/01/18 08:28:35;;;;;;;;;;;;;;;;;;;;;
2022/01/18 08:31:23;;;;;;;;;27.25;21.00;;;;;;;;4755502;30;36799;-84
2022/01/18 08:34:09;;;;;;;;;;;;;;;;;;;;;
2022/01/18 08:40:19;;;;;;;;;;;;;;;;;;;;;
2022/01/18 08:43:35;;;;;;;;;;;;;;;;;;;;;
2022/01/18 08:49:16;;;;;;;;;29.00;19.75;;;;;;;;4758454;30;8793;-84
2022/01/18 08:52:11;;;;;;;;;;;;;;;;;;;;;
2022/01/18 08:55:16;;;;;;;;;;;;;;;;;;;;;
2022/01/18 08:58:14;;;;;;;;;;;;;;;;;;;;;
2022/01/18 09:01:02;;;;;;;;;25.50;16.50;;;;;;;;4752178;30;35939;-84
2022/01/18 09:03:44;;;;;;;;;33.00;20.25;;;;;;;;4755871;30;8936;-84
2022/01/18 09:06:40;;;;;;;;;;;;;;;;;;;;;
2022/01/18 09:12:18;;;;;;;;;;;;;;;;;;;;;
2022/01/18 09:14:53;;;;;;;;;29.25;20.75;;;;;;;;4760040;30;35422;-84
2022/01/18 09:17:27;;;;;;;;;29.00;25.25;;;;;;;;4756612;30;8818;-84
2022/01/18 09:19:58;;;;;;;;;25.50;22.50;;;;;;;;4768133;30;8805;-84
2022/01/18 09:22:53;;;;;;;;;;;;;;;;;;;;;
2022/01/18 09:25:46;;;;;;;;;28.25;22.00;;;;;;;;4754666;30;36876;-84
2022/01/18 09:28:16;;;;;;;;;35.25;27.25;;;;;;;;4755098;30;8898;-84
2022/01/18 09:30:46;;;;;;;;;42.75;27.25;;;;;;;;4739699;30;8821;-84
2022/01/18 09:33:16;;;;;;;;;31.50;23.50;;;;;;;;4739714;30;8980;-84
2022/01/18 09:36:01;;;;;;;;;32.00;24.75;;;;;;;;4755952;30;8843;-84
2022/01/18 09:38:48;;;;;;;;;35.50;27.75;;;;;;;;4739613;30;8854;-84
2022/01/18 09:44:32;;;;;;;;;;;;;;;;;;;;;
2022/01/18 09:47:31;;;;;;;;;;;;;;;;;;;;;
2022/01/18 10:02:03;;;;;;;;;;;;;;;;;;;;;
2022/01/18 10:04:41;;;;;;;;;38.75;28.50;;;;;;;;4749367;30;8842;-85
2022/01/18 10:07:30;;;;;;;;;;;;;;;;;;;;;
2022/01/18 10:10:14;;;;;;;;;39.00;30.50;;;;;;;;4754215;30;36019;-84
2022/01/18 10:19:46;;;;;;;;;;;;;;;;;;;;;
2022/01/18 10:22:53;;;;;;;;;;;;;;;;;;;;;
2022/01/18 10:25:51;;;;;;;;;;;;;;;;;;;;;
2022/01/18 10:32:00;;;;;;;;;37.50;29.25;;;;;;;;4681886;30;8838;-84
2022/01/18 10:37:49;;;;;;;;;39.50;27.50;;;;;;;;4756298;30;8843;-84
2022/01/18 10:40:27;;;;;;;;;;;;;;;;;;;;;
2022/01/18 10:46:46;;;;;;;;;36.75;27.50;;;;;;;;4749707;29;8832;-85
2022/01/18 10:49:32;;;;;;;;;33.75;29.50;;;;;;;;4737156;30;8852;-84
2022/01/18 10:52:20;;;;;;;;;;;;;;;;;;;;;
2022/01/18 10:54:57;;;;;;;;;;;;;;;;;;;;;
2022/01/18 10:57:38;;;;;;;;;33.25;28.25;;;;;;;;4773598;29;35993;-84
2022/01/18 11:09:10;;;;;;;;;;;;;;;;;;;;;
2022/01/18 11:21:32;;;;;;;;;;;;;;;;;;;;;
2022/01/18 11:30:16;;;;;;;;;;;;;;;;;;;;;
2022/01/18 11:33:20;;;;;;;;;;;;;;;;;;;;;
2022/01/18 11:36:11;;;;;;;;;23.00;16.50;;;;;;;;4774164;30;36064;-84
2022/01/18 11:38:49;;;;;;;;;;;;;;;;;;;;;
2022/01/18 11:41:26;;;;;;;;;17.50;15.75;;;;;;;;4774045;30;36905;-84
2022/01/18 11:43:59;;;;;;;;;17.50;16.00;;;;;;;;4774990;30;8858;-84
2022/01/18 11:49:34;;;;;;;;;14.75;12.50;;;;;;;;4774375;30;8820;-85
2022/01/18 11:52:37;;;;;;;;;13.00;11.00;;;;;;;;4756054;30;8774;-84
2022/01/18 11:58:38;;;;;;;;;13.25;11.25;;;;;;;;4705171;30;8844;-84
2022/01/18 12:01:09;;;;;;;;;10.00;8.00;;;;;;;;4730881;30;8810;-84
2022/01/18 12:04:03;;;;;;;;;12.25;10.50;;;;;;;;4743147;30;8799;-84
2022/01/18 12:06:53;;;;;;;;;;;;;;;;;;;;;
2022/01/18 12:09:40;;;;;;;;;11.50;9.00;;;;;;;;4740575;30;36199;-84
2022/01/18 12:12:38;;;;;;;;;;;;;;;;;;;;;
2022/01/18 12:15:36;;;;;;;;;;;;;;;;;;;;;
2022/01/18 12:34:30;;;;;;;;;13.50;11.50;;;;;;;;4797486;29;8849;-86
2022/01/18 12:37:08;;;;;;;;;15.75;12.50;;;;;;;;4809881;29;8893;-87
2022/01/18 12:44:57;;;;;;;;;18.00;14.25;;;;;;;;4789939;29;8817;-86
2022/01/18 12:47:22;;;;;;;;;15.25;12.25;;;;;;;;4789118;29;8875;-88
2022/01/18 12:49:50;;;;;;;;;14.00;11.00;;;;;;;;4789764;29;8883;-85
2022/01/18 12:52:18;;;;;;;;;16.00;13.75;;;;;;;;4791697;29;8848;-85
2022/01/18 12:54:44;;;;;;;;;11.00;11.00;;;;;;;;4790468;29;8844;-85
2022/01/18 12:57:13;;;;;;;;;18.00;13.75;;;;;;;;4790332;29;9267;-85
2022/01/18 13:00:15;;;;;;;;;16.50;12.50;;;;;;;;4791864;29;8952;-85
2022/01/18 13:02:46;;;;;;;;;15.75;14.00;;;;;;;;4738941;30;8827;-85
2022/01/18 13:05:11;;;;;;;;;16.25;14.50;;;;;;;;4784434;29;8922;-85
2022/01/18 13:07:50;;;;;;;;;22.25;14.00;;;;;;;;4791739;29;8860;-85
2022/01/18 13:10:17;;;;;;;;;13.25;11.75;;;;;;;;4790256;29;8839;-85
2022/01/18 13:12:44;;;;;;;;;19.00;13.25;;;;;;;;4791534;29;8879;-85
2022/01/18 13:15:21;;;;;;;;;21.75;16.00;;;;;;;;4791473;29;8828;-85
2022/01/18 13:23:19;;;;;;;;;16.50;13.50;;;;;;;;4791059;29;8773;-85
2022/01/18 13:25:49;;;;;;;;;21.50;15.25;;;;;;;;4790048;29;8861;-85
2022/01/18 13:28:15;;;;;;;;;19.25;13.25;;;;;;;;4791409;29;8860;-85
2022/01/18 13:30:40;;;;;;;;;14.00;12.25;;;;;;;;4789746;29;9244;-84
2022/01/18 13:33:08;;;;;;;;;10.25;9.75;;;;;;;;4791584;29;8853;-85
2022/01/18 13:35:33;;;;;;;;;17.25;11.50;;;;;;;;4791312;29;8949;-85
2022/01/18 13:38:00;;;;;;;;;14.25;11.00;;;;;;;;4789856;29;8872;-85
2022/01/18 13:40:27;;;;;;;;;16.75;13.25;;;;;;;;4791181;29;8845;-85
2022/01/18 13:43:02;;;;;;;;;16.50;12.75;;;;;;;;4790186;29;8864;-85
2022/01/18 13:45:30;;;;;;;;;15.25;10.25;;;;;;;;4791692;29;8824;-85
2022/01/18 13:47:59;;;;;;;;;16.50;11.25;;;;;;;;4790868;29;8860;-85
2022/01/18 13:50:46;;;;;;;;;12.25;9.00;;;;;;;;4789930;29;8876;-85
2022/01/18 13:53:13;;;;;;;;;17.50;13.50;;;;;;;;4790994;29;9792;-85
2022/01/18 13:55:44;;;;;;;;;11.75;10.25;;;;;;;;4789743;29;8836;-85
2022/01/18 13:58:18;;;;;;;;;11.25;9.00;;;;;;;;4789525;29;8832;-85
2022/01/18 14:00:46;;;;;;;;;12.75;9.75;;;;;;;;4791043;29;9704;-85
2022/01/18 14:03:27;;;;;;;;;11.00;7.25;;;;;;;;4790459;29;8829;-85
2022/01/18 14:05:52;;;;;;;;;11.00;9.00;;;;;;;;4790829;29;8860;-85
2022/01/18 14:08:30;;;;;;;;;11.50;10.50;;;;;;;;4790979;29;9794;-85
2022/01/18 14:11:15;;;;;;;;;;;;;;;;;;;;;
2022/01/18 14:13:43;;;;;;;;;13.75;12.00;;;;;;;;4789862;29;36973;-85
2022/01/18 14:16:24;;;;;;;;;11.75;10.50;;;;;;;;4789357;29;8902;-85
2022/01/18 14:19:04;;;;;;;;;19.50;11.25;;;;;;;;4789565;29;8844;-85
2022/01/18 14:21:58;;;;;;;;;16.50;14.00;;;;;;;;4789438;29;8852;-85
2022/01/18 14:24:26;;;;;;;;;9.50;9.00;;;;;;;;4790663;29;8792;-84
2022/01/18 14:26:56;;;;;;;;;12.50;11.00;;;;;;;;4789399;29;8847;-85
2022/01/18 14:29:24;;;;;;;;;11.50;9.50;;;;;;;;4790469;29;8800;-85
2022/01/18 14:31:58;;;;;;;;;11.50;10.00;;;;;;;;4790414;29;8832;-84
2022/01/18 14:34:48;;;;;;;;;18.75;13.25;;;;;;;;4788712;29;8852;-85
2022/01/18 14:37:40;;;;;;;;;12.50;11.75;;;;;;;;4788835;29;8875;-85
2022/01/18 14:40:11;;;;;;;;;14.50;11.00;;;;;;;;4790353;29;8836;-85
2022/01/18 14:42:49;;;;;;;;;13.75;12.50;;;;;;;;4789065;29;8916;-85
2022/01/18 14:45:32;;;;;;;;;12.25;10.00;;;;;;;;4790267;29;8837;-85
2022/01/18 14:48:36;;;;;;;;;;;;;;;;;;;;;
2022/01/18 14:51:13;;;;;;;;;11.25;9.00;;;;;;;;4782543;29;35968;-85
2022/01/18 14:53:39;;;;;;;;;11.25;9.75;;;;;;;;4788902;29;8860;-85
2022/01/18 14:56:16;;;;;;;;;14.50;9.50;;;;;;;;4788725;29;8918;-85
2022/01/18 14:58:41;;;;;;;;;10.50;7.50;;;;;;;;4788958;29;8832;-85
2022/01/18 15:04:25;;;;;;;;;18.50;11.75;;;;;;;;4733548;30;8846;-84
2022/01/18 15:12:32;;;;;;;;;12.50;9.00;;;;;;;;4694087;27;8864;-85
2022/01/18 15:18:42;;;;;;;;;;;;;;;;;;;;;
2022/01/18 15:21:58;;;;;;;;;;;;;;;;;;;;;
2022/01/18 15:27:42;;;;;;;;;17.75;12.50;;;;;;;;4763627;30;8960;-85
2022/01/18 15:33:45;;;;;;;;;14.50;12.75;;;;;;;;4748286;30;8875;-85
2022/01/18 15:36:58;;;;;;;;;;;;;;;;;;;;;
2022/01/18 15:39:49;;;;;;;;;13.50;11.25;;;;;;;;4768623;30;8840;-85
2022/01/18 15:42:17;;;;;;;;;16.00;10.50;;;;;;;;4760937;30;8840;-85
2022/01/18 15:44:55;;;;;;;;;;;;;;;;;;;;;
2022/01/18 15:47:24;;;;;;;;;16.25;12.25;;;;;;;;4772980;30;35639;-84
2022/01/18 15:49:51;;;;;;;;;18.00;11.00;;;;;;;;4756654;30;8816;-85
2022/01/18 15:52:30;;;;;;;;;18.00;11.75;;;;;;;;4758255;30;8870;-85
2022/01/18 15:55:34;;;;;;;;;;;;;;;;;;;;;
2022/01/18 15:57:52;;;;;;;;;13.00;8.00;;;;;;;;4752334;30;8868;-85
2022/01/18 16:00:42;;;;;;;;;17.25;11.00;;;;;;;;4757315;30;8868;-85
2022/01/18 16:03:30;;;;;;;;;17.50;12.00;;;;;;;;4756695;30;8835;-85
2022/01/18 16:05:56;;;;;;;;;17.50;10.75;;;;;;;;4756924;30;9833;-85
2022/01/18 16:08:22;;;;;;;;;14.75;11.00;;;;;;;;4757256;30;8935;-85
2022/01/18 16:10:48;;;;;;;;;15.75;9.00;;;;;;;;4747810;29;8857;-84
2022/01/18 16:13:13;;;;;;;;;15.25;11.00;;;;;;;;4782281;29;9711;-84
2022/01/18 16:15:38;;;;;;;;;20.00;12.75;;;;;;;;4776406;29;8882;-84
2022/01/18 16:18:04;;;;;;;;;13.00;11.25;;;;;;;;4776213;29;8855;-84
2022/01/18 16:20:29;;;;;;;;;14.50;11.75;;;;;;;;4776280;29;8887;-84
2022/01/18 16:22:54;;;;;;;;;16.75;13.00;;;;;;;;4785980;29;8928;-85
2022/01/18 16:50:42;;;;;;;;;16.50;12.00;;;;;;;;4684083;30;9019;-84
2022/01/18 17:02:52;;;;;;;;;;;;;;;;;;;;;
2022/01/18 17:05:56;;;;;;;;;;;;;;;;;;;;;
2022/01/18 17:11:30;;;;;;;;;17.00;11.00;;;;;;;;4705491;30;8797;-84
2022/01/18 17:14:29;;;;;;;;;22.25;18.50;;;;;;;;4693768;30;8786;-85
2022/01/18 17:20:06;;;;;;;;;21.00;18.00;;;;;;;;4891787;24;8809;-87
2022/01/18 17:23:00;;;;;;;;;25.00;18.00;;;;;;;;4794116;29;9800;-87
2022/01/18 17:25:30;;;;;;;;;33.00;23.25;;;;;;;;4721098;30;8896;-84
2022/01/18 17:33:43;;;;;;;;;25.00;19.75;;;;;;;;4791939;29;9060;-86
2022/01/18 17:36:09;;;;;;;;;31.50;22.00;;;;;;;;4790964;29;8975;-85
2022/01/18 17:38:36;;;;;;;;;28.25;22.25;;;;;;;;4801789;29;8883;-85
2022/01/18 17:41:01;;;;;;;;;24.75;19.50;;;;;;;;4781348;29;8871;-87
2022/01/18 17:43:27;;;;;;;;;32.75;22.00;;;;;;;;4795706;29;8870;-86
2022/01/18 17:45:53;;;;;;;;;29.25;21.75;;;;;;;;4787139;29;8883;-86
2022/01/18 17:48:19;;;;;;;;;26.75;23.25;;;;;;;;4795782;29;8888;-87
2022/01/18 17:50:45;;;;;;;;;23.50;19.00;;;;;;;;4792600;29;8880;-86
2022/01/18 17:53:11;;;;;;;;;27.50;22.75;;;;;;;;4786220;29;8856;-87
2022/01/18 17:55:37;;;;;;;;;24.75;22.25;;;;;;;;4802165;29;8840;-86
2022/01/18 17:58:03;;;;;;;;;28.25;23.00;;;;;;;;4790456;29;8847;-86
2022/01/18 18:00:28;;;;;;;;;26.00;22.25;;;;;;;;4798059;29;8849;-86
2022/01/18 18:02:53;;;;;;;;;20.25;16.50;;;;;;;;4797520;29;8844;-86
2022/01/18 18:05:19;;;;;;;;;42.67;22.00;;;;;;;;4801409;29;8935;-86
2022/01/18 18:07:46;;;;;;;;;34.75;24.25;;;;;;;;4796072;29;9485;-86
2022/01/18 18:10:12;;;;;;;;;36.25;22.25;;;;;;;;4802293;29;8877;-86
2022/01/18 18:12:38;;;;;;;;;29.25;19.50;;;;;;;;4801785;29;8925;-86
2022/01/18 18:15:04;;;;;;;;;26.25;21.75;;;;;;;;4802827;29;8822;-85
2022/01/18 18:17:29;;;;;;;;;30.00;23.50;;;;;;;;4798113;29;8928;-86
2022/01/18 18:19:55;;;;;;;;;33.00;22.75;;;;;;;;4801896;29;9863;-85
2022/01/18 18:22:20;;;;;;;;;28.75;24.00;;;;;;;;4803658;29;8952;-86
2022/01/18 18:24:45;;;;;;;;;31.25;24.00;;;;;;;;4801353;29;8907;-85
2022/01/18 18:27:11;;;;;;;;;29.75;22.50;;;;;;;;4790980;29;8865;-86
2022/01/18 18:29:36;;;;;;;;;40.00;27.00;;;;;;;;4801754;29;8865;-85
2022/01/18 18:32:02;;;;;;;;;32.75;24.00;;;;;;;;4800179;29;10427;-86
2022/01/18 18:34:27;;;;;;;;;22.50;20.25;;;;;;;;4802215;29;8941;-86
2022/01/18 18:36:52;;;;;;;;;32.50;22.50;;;;;;;;4800641;29;8841;-86
2022/01/18 18:39:23;;;;;;;;;28.25;22.75;;;;;;;;4799819;29;8824;-86
2022/01/18 18:42:49;;;;;;;;;30.50;23.50;;;;;;;;4794654;29;8785;-85
2022/01/18 18:44:39;;;;;;;;;38.25;22.50;;;;;;;;4800317;29;8830;-85
2022/01/18 18:47:04;;;;;;;;;25.50;21.00;;;;;;;;4801468;29;8952;-86
2022/01/18 18:49:31;;;;;;;;;34.75;24.75;;;;;;;;4801796;29;9072;-85
2022/01/18 18:51:57;;;;;;;;;30.50;24.50;;;;;;;;4804482;29;8814;-86
2022/01/18 18:54:22;;;;;;;;;26.75;22.75;;;;;;;;4801871;29;8826;-86
2022/01/18 18:56:48;;;;;;;;;26.50;19.50;;;;;;;;4804060;29;8849;-86
2022/01/18 18:59:17;;;;;;;;;27.50;20.00;;;;;;;;4801949;29;8860;-85
2022/01/18 19:02:38;;;;;;;;;25.00;20.50;;;;;;;;4803078;29;8842;-86
2022/01/18 19:04:28;;;;;;;;;25.75;20.75;;;;;;;;4802561;29;8846;-86
2022/01/18 19:06:53;;;;;;;;;29.00;21.00;;;;;;;;4800124;29;8958;-85
2022/01/18 19:09:19;;;;;;;;;28.50;21.50;;;;;;;;4802339;29;8866;-86
2022/01/18 19:11:44;;;;;;;;;25.75;21.75;;;;;;;;4792831;29;100062;-86
2022/01/18 19:14:12;;;;;;;;;27.67;20.00;;;;;;;;4758786;29;45239;-86
2022/01/18 19:16:38;;;;;;;;;33.75;22.25;;;;;;;;4787882;29;28707;-87
2022/01/18 19:19:04;;;;;;;;;29.75;25.00;;;;;;;;4785112;29;28619;-87
2022/01/18 19:21:29;;;;;;;;;28.50;22.75;;;;;;;;4786198;29;28475;-87
2022/01/18 19:23:55;;;;;;;;;25.75;20.25;;;;;;;;4788783;29;28472;-87
2022/01/18 19:26:20;;;;;;;;;28.75;21.00;;;;;;;;4784861;29;28878;-83
2022/01/18 19:28:46;;;;;;;;;37.25;22.75;;;;;;;;4787204;29;28523;-87
2022/01/18 19:31:11;;;;;;;;;27.25;20.25;;;;;;;;4784508;29;28766;-87
2022/01/18 19:33:36;;;;;;;;;25.75;19.75;;;;;;;;4786112;29;28384;-87
2022/01/18 19:36:04;;;;;;;;;29.25;19.00;;;;;;;;4786901;29;28355;-88
2022/01/18 19:38:29;;;;;;;;;40.75;26.50;;;;;;;;4786326;29;30754;-87
2022/01/18 19:40:55;;;;;;;;;26.25;20.75;;;;;;;;4786811;29;28353;-87
2022/01/18 19:43:21;;;;;;;;;30.25;24.00;;;;;;;;4784520;29;28426;-87
2022/01/18 19:45:46;;;;;;;;;30.00;20.75;;;;;;;;4784822;29;28588;-87
2022/01/18 19:48:16;;;;;;;;;29.75;24.50;;;;;;;;4786054;29;28361;-87
2022/01/18 19:50:42;;;;;;;;;26.00;19.50;;;;;;;;4788048;29;28612;-87
2022/01/18 19:53:09;;;;;;;;;26.75;20.50;;;;;;;;4785671;29;28686;-87
2022/01/18 19:55:35;;;;;;;;;26.50;22.75;;;;;;;;4785359;29;28307;-86
2022/01/18 19:58:04;;;;;;;;;28.25;19.50;;;;;;;;4779906;29;29484;-87
2022/01/18 20:00:32;;;;;;;;;30.00;21.50;;;;;;;;4784127;29;28450;-86
2022/01/18 20:02:58;;;;;;;;;28.75;19.75;;;;;;;;4786301;29;28526;-87
2022/01/18 20:05:27;;;;;;;;;41.50;25.50;;;;;;;;4786876;29;28777;-87
2022/01/18 20:07:53;;;;;;;;;27.00;21.50;;;;;;;;4784048;29;30114;-88
2022/01/18 20:10:18;;;;;;;;;23.25;17.50;;;;;;;;4787906;29;28819;-87
2022/01/18 20:12:44;;;;;;;;;30.50;21.75;;;;;;;;4785497;29;28755;-87
2022/01/18 20:15:10;;;;;;;;;29.75;21.50;;;;;;;;4787247;29;28591;-87
2022/01/18 20:17:36;;;;;;;;;27.00;22.50;;;;;;;;4782760;29;28485;-88
2022/01/18 20:20:05;;;;;;;;;26.00;20.00;;;;;;;;4785826;29;28597;-86
2022/01/18 20:39:03;;;;;;;;;25.00;19.25;;;;;;;;4422235;27;28604;-87
2022/01/18 20:43:34;;;;;;;;;34.50;24.50;;;;;;;;4743801;30;29085;-88
2022/01/18 20:44:32;;;;;;;;;;;;;;;;;;;;;
2022/01/18 20:50:07;;;;;;;;;23.75;20.50;;;;;;;;4871416;24;28509;-88
2022/01/18 20:52:52;;;;;;;;;25.75;17.75;;;;;;;;4772397;29;29020;-88
2022/01/18 20:55:34;;;;;;;;;;;;;;;;;;;;;
2022/01/18 21:01:17;;;;;;;;;30.00;21.00;;;;;;;;4766690;29;29124;-87
2022/01/18 21:03:51;;;;;;;;;25.25;17.75;;;;;;;;4769944;29;28536;-87
2022/01/18 21:06:19;;;;;;;;;30.50;24.75;;;;;;;;4771577;29;28398;-88
2022/01/18 21:08:53;;;;;;;;;34.00;22.00;;;;;;;;4772754;29;28348;-87
2022/01/18 21:12:05;;;;;;;;;34.50;23.50;;;;;;;;4752519;29;28935;-87
2022/01/18 21:14:37;;;;;;;;;31.75;24.00;;;;;;;;4776749;29;28612;-87
2022/01/18 21:17:04;;;;;;;;;26.00;25.25;;;;;;;;4747931;29;28503;-87
2022/01/18 21:19:29;;;;;;;;;18.50;18.50;;;;;;;;4773214;29;28477;-87
2022/01/18 21:22:13;;;;;;;;;30.25;21.25;;;;;;;;4754894;29;29938;-87
2022/01/18 21:25:20;;;;;;;;;;;;;;;;;;;;;
2022/01/18 21:28:01;;;;;;;;;;;;;;;;;;;;;
2022/01/18 21:34:07;;;;;;;;;;;;;;;;;;;;;
2022/01/18 21:36:35;;;;;;;;;34.25;28.25;;;;;;;;4760123;29;28648;-87
2022/01/18 21:42:26;;;;;;;;;;;;;;;;;;;;;
2022/01/18 21:47:47;;;;;;;;;32.25;24.50;;;;;;;;4740303;29;28672;-88
2022/01/18 21:54:08;;;;;;;;;;;;;;;;;;;;;
2022/01/18 21:56:51;;;;;;;;;;;;;;;;;;;;;
2022/01/18 21:59:47;;;;;;;;;;;;;;;;;;;;;
2022/01/18 22:02:33;;;;;;;;;32.50;28.25;;;;;;;;4761465;29;28603;-89
2022/01/18 22:05:09;;;;;;;;;;;;;;;;;;;;;
2022/01/18 22:23:27;;;;;;;;;;;;;;;;;;;;;
2022/01/18 22:35:05;;;;;;;;;;;;;;;;;;;;;
2022/01/18 22:37:35;;;;;;;;;22.50;18.00;;;;;;;;4768385;29;53148;-88
2022/01/18 22:40:39;;;;;;;;;;;;;;;;;;;;;
2022/01/18 22:43:05;;;;;;;;;24.00;18.25;;;;;;;;4691508;30;58248;-84
2022/01/18 22:45:30;;;;;;;;;24.25;19.50;;;;;;;;4762131;29;29508;-89
2022/01/18 22:47:59;;;;;;;;;26.75;17.75;;;;;;;;4765739;29;28674;-88
2022/01/18 22:50:24;;;;;;;;;17.75;14.00;;;;;;;;4769305;29;28554;-88
2022/01/18 22:52:49;;;;;;;;;21.00;13.50;;;;;;;;4766766;29;28504;-89
2022/01/18 22:55:15;;;;;;;;;25.25;17.00;;;;;;;;4767818;29;28614;-88
2022/01/18 22:57:40;;;;;;;;;22.50;15.00;;;;;;;;4768950;29;28561;-89
2022/01/18 23:00:18;;;;;;;;;18.50;13.00;;;;;;;;4773127;29;28560;-89
2022/01/18 23:02:43;;;;;;;;;20.75;14.00;;;;;;;;4769492;29;30172;-88
2022/01/18 23:05:10;;;;;;;;;19.00;17.00;;;;;;;;4771574;29;28507;-88
2022/01/18 23:07:39;;;;;;;;;19.00;16.75;;;;;;;;4772391;29;28492;-88
2022/01/18 23:10:09;;;;;;;;;15.25;13.25;;;;;;;;4778584;29;28624;-88
2022/01/18 23:12:37;;;;;;;;;22.50;15.50;;;;;;;;4774331;29;29955;-89
2022/01/18 23:15:12;;;;;;;;;17.50;13.25;;;;;;;;4771843;29;28332;-90
2022/01/18 23:17:58;;;;;;;;;25.50;18.00;;;;;;;;4770454;29;28336;-87
2022/01/18 23:21:00;;;;;;;;;20.50;19.25;;;;;;;;4752314;29;29606;-90
2022/01/18 23:23:40;;;;;;;;;;;;;;;;;;;;;
2022/01/18 23:26:15;;;;;;;;;22.75;15.25;;;;;;;;4765119;29;56882;-90
2022/01/18 23:28:40;;;;;;;;;20.00;16.00;;;;;;;;4771275;29;28451;-88
2022/01/18 23:31:05;;;;;;;;;23.00;13.67;;;;;;;;4770810;29;28783;-88
2022/01/18 23:36:44;;;;;;;;;20.75;18.25;;;;;;;;4772385;29;28491;-87
2022/01/18 23:39:19;;;;;;;;;17.25;13.75;;;;;;;;4766872;29;28352;-87
2022/01/18 23:41:59;;;;;;;;;17.75;15.75;;;;;;;;4770879;29;28295;-88
2022/01/18 23:44:35;;;;;;;;;17.75;14.75;;;;;;;;4766630;29;30098;-87
2022/01/18 23:47:03;;;;;;;;;20.50;18.00;;;;;;;;4769735;29;28863;-87
